This is the latest recevied weather packets stored in our database for station/object F8BJE-13. If no packets are shown the sender has not sent any weather packets the latest 10 day(s).
| Time | Temp. | Humidity | Pressure | Rain* | Wind** | Luminosity | Snow |
|---|---|---|---|---|---|---|---|
| 1788136204 | 15° C | 92% | 1020.4 hPa | 0 mm | - | - | - |
| 1788134403 | 15.56° C | 91% | 1020.1 hPa | 0 mm | - | - | - |
| 1788132603 | 16.11° C | 93% | 1019.6 hPa | 0 mm | - | - | - |
| 1788130803 | 16.11° C | 96% | 1019.7 hPa | 0 mm | - | - | - |
| 1788129003 | 16.67° C | 98% | 1019.5 hPa | 0 mm | - | - | - |
| 1788127203 | 16.11° C | 98% | 1019 hPa | 0 mm | - | - | - |
| 1788125403 | 16.11° C | 97% | 1018.6 hPa | 1.78 mm | - | - | - |
| 1788123603 | 16.11° C | 94% | 1018 hPa | 5.59 mm | - | - | - |
| 1788121803 | 16.67° C | 92% | 1019 hPa | 3.81 mm | - | - | - |
| 1788120003 | 17.22° C | 89% | 1016.9 hPa | 0.25 mm | - | - | - |
| 1788118203 | 17.22° C | 85% | 1017.2 hPa | 4.83 mm | - | - | - |
| 1788116403 | 18.33° C | 79% | 1017 hPa | 4.57 mm | - | - | - |
| 1788114603 | 22.78° C | 55% | 1015.7 hPa | 0 mm | - | - | - |
| 1788112803 | 23.33° C | 53% | 1015.6 hPa | 0 mm | - | - | - |
| 1788111003 | 24.44° C | 50% | 1015.9 hPa | 0 mm | - | - | - |
| 1788109203 | 25.56° C | 43% | 1016 hPa | 0 mm | - | - | - |
| 1788107403 | 25.56° C | 41% | 1016.4 hPa | 0 mm | - | - | - |
| 1788105603 | 26.67° C | 40% | 1016.4 hPa | 0 mm | - | - | - |
| 1788103803 | 27.22° C | 40% | 1016.9 hPa | 0 mm | - | - | - |
| 1788102003 | 26.67° C | 41% | 1017 hPa | 0 mm | - | - | - |
| 1788100203 | 25.56° C | 42% | 1017.3 hPa | 0 mm | - | - | - |
| 1788098403 | 26.67° C | 42% | 1017.3 hPa | 0 mm | - | - | - |
| 1788096603 | 26.11° C | 42% | 1017.8 hPa | 0 mm | - | - | - |
| 1788094803 | 27.78° C | 39% | 1018.1 hPa | 0 mm | - | - | - |
| 1788093003 | 29.44° C | 36% | 1018.4 hPa | 0 mm | - | - | - |
* Rain latest hour (hover to see other rain measurements)
** Current wind speed in m/s (hover to see current wind gust speed)